West Elizabeth, Pennsylvania
Current Conditions -  °F | °C
As of 5:41 PM on Monday 26 Jan 2015 (Local Time) from KAGC Reporting Station
Light Snow Light Snow  
Wind Chill: 16°   Ceiling: 700
Heat Index: 25°   Visibility: 1.2mi
Dew Point: 21°   Wind: 8mph
Humidity: 85%   Direction: 330°NNW
Pressure: 29.74"   Gusts: NA
Location:  40.27°N, 79.9°W
Report Text: KAGC 262241Z 33007KT 1 1/4SM -SN BR BKN007 OVC019 M04/M06 A2974 RMK AO2 P0001 T10391061
Loading
Personal Weather Stations






























Interactive Weather Map New forecast layout! Learn more

10-Day Weather Forecast

Advertisements
Track Severe Weather on mobile